createdAt,value
2017-04-25T00:00:51.014Z,999.29
2017-04-25T00:02:03.257Z,999.27
2017-04-25T00:03:15.478Z,999.24
2017-04-25T00:04:27.723Z,999.24
2017-04-25T00:05:39.972Z,999.24
2017-04-25T00:06:52.515Z,999.17
2017-04-25T00:08:05.040Z,999.17
2017-04-25T00:09:16.989Z,999.17
2017-04-25T00:10:29.528Z,999.11
2017-04-25T00:11:42.053Z,999.1
2017-04-25T00:12:54.598Z,999.05
2017-04-25T00:14:06.840Z,999.04
2017-04-25T00:15:19.068Z,999.03
2017-04-25T00:16:31.614Z,998.96
2017-04-25T00:17:43.830Z,998.9
2017-04-25T00:18:56.370Z,998.91
2017-04-25T00:20:08.912Z,998.91
2017-04-25T00:21:21.418Z,998.86
2017-04-25T00:22:33.918Z,998.81
2017-04-25T00:23:46.450Z,998.77
2017-04-25T00:24:59.006Z,998.74
2017-04-25T00:26:11.554Z,998.73
2017-04-25T00:27:24.074Z,998.73
2017-04-25T00:28:36.621Z,998.67
2017-04-25T00:29:49.171Z,998.7
2017-04-25T00:31:01.710Z,998.7
2017-04-25T00:32:13.671Z,998.62
2017-04-25T00:33:25.903Z,998.57
2017-04-25T00:34:38.146Z,998.54
2017-04-25T00:35:50.692Z,998.52
2017-04-25T00:37:03.239Z,998.5
2017-04-25T00:38:15.164Z,998.47
2017-04-25T00:39:27.706Z,998.45
2017-04-25T00:40:39.968Z,998.41
2017-04-25T00:41:52.493Z,998.38
2017-04-25T00:43:05.002Z,998.32
2017-04-25T00:44:17.246Z,998.22
2017-04-25T00:45:29.789Z,998.24
2017-04-25T00:46:42.310Z,998.19
2017-04-25T00:47:54.848Z,998.25
2017-04-25T00:49:07.419Z,998.22
2017-04-25T00:50:19.686Z,998.21
2017-04-25T00:51:32.216Z,998.21
2017-04-25T00:52:44.438Z,998.21
2017-04-25T00:53:56.985Z,998.14
2017-04-25T00:55:09.530Z,998.14
2017-04-25T00:56:22.061Z,998.1
2017-04-25T00:57:34.622Z,998.08
2017-04-25T00:58:47.163Z,998
2017-04-25T00:59:59.064Z,998.01
2017-04-25T01:01:11.631Z,998
2017-04-25T01:02:24.177Z,997.97
2017-04-25T01:03:36.698Z,997.94
2017-04-25T01:04:49.223Z,997.94
2017-04-25T01:06:01.765Z,997.91
2017-04-25T01:07:14.279Z,997.95
2017-04-25T01:08:26.482Z,997.94
2017-04-25T01:09:39.011Z,997.93
2017-04-25T01:10:50.924Z,997.91
2017-04-25T01:12:03.422Z,997.9
2017-04-25T01:13:15.669Z,997.9
2017-04-25T01:14:28.205Z,997.84
2017-04-25T01:15:40.733Z,997.87
2017-04-25T01:16:53.263Z,997.87
2017-04-25T01:18:05.804Z,997.83
2017-04-25T01:19:17.741Z,997.81
2017-04-25T01:20:30.291Z,997.76
2017-04-25T01:21:42.812Z,997.81
2017-04-25T01:22:55.335Z,997.7
2017-04-25T01:24:07.846Z,997.73
2017-04-25T01:25:20.051Z,997.69
2017-04-25T01:26:32.575Z,997.63
2017-04-25T01:27:45.119Z,997.66
2017-04-25T01:28:57.629Z,997.69
2017-04-25T01:30:10.144Z,997.66
2017-04-25T01:31:22.705Z,997.64
2017-04-25T01:32:35.254Z,997.64
2017-04-25T01:33:47.792Z,997.59
2017-04-25T01:35:00.338Z,997.6
2017-04-25T01:36:12.863Z,997.56
2017-04-25T01:37:25.363Z,997.54
2017-04-25T01:38:37.905Z,997.59
2017-04-25T01:39:50.452Z,997.55
2017-04-25T01:41:02.964Z,997.53
2017-04-25T01:42:14.571Z,997.52
2017-04-25T01:43:27.118Z,997.47
2017-04-25T01:44:39.363Z,997.46
2017-04-25T01:45:51.634Z,997.43
2017-04-25T01:47:04.156Z,997.41
2017-04-25T01:48:16.672Z,997.39
2017-04-25T01:49:29.222Z,997.32
2017-04-25T01:50:41.466Z,997.31
2017-04-25T01:51:54.262Z,997.31
2017-04-25T01:53:06.781Z,997.29
2017-04-25T01:54:19.306Z,997.25
2017-04-25T01:55:31.824Z,997.23
2017-04-25T01:56:44.361Z,997.25
2017-04-25T01:57:56.875Z,997.18
2017-04-25T01:59:09.411Z,997.19
2017-04-25T02:00:21.957Z,997.17
2017-04-25T02:01:34.506Z,997.19
2017-04-25T02:02:47.027Z,997.15
2017-04-25T02:03:59.568Z,997.14
2017-04-25T02:05:12.086Z,997.09
2017-04-25T02:06:24.615Z,997.11
2017-04-25T02:07:37.155Z,997.06
2017-04-25T02:08:49.382Z,997.07
2017-04-25T02:10:01.925Z,997.07
2017-04-25T02:11:14.449Z,997.04
2017-04-25T02:12:26.968Z,996.98
2017-04-25T02:13:39.515Z,997
2017-04-25T02:14:52.063Z,996.97
2017-04-25T02:16:04.602Z,996.99
2017-04-25T02:17:17.147Z,996.94
2017-04-25T02:18:29.687Z,996.93
2017-04-25T02:19:42.222Z,996.91
2017-04-25T02:20:54.739Z,996.9
2017-04-25T02:22:07.275Z,996.89
2017-04-25T02:23:19.804Z,996.89
2017-04-25T02:24:32.329Z,996.88
2017-04-25T02:25:44.863Z,996.88
2017-04-25T02:26:57.392Z,996.86
2017-04-25T02:28:09.612Z,996.86
2017-04-25T02:29:21.836Z,996.82
2017-04-25T02:30:34.407Z,996.78
2017-04-25T02:31:46.654Z,996.76
2017-04-25T02:32:58.888Z,996.77
2017-04-25T02:34:11.409Z,996.75
2017-04-25T02:35:23.937Z,996.77
2017-04-25T02:36:36.451Z,996.74
2017-04-25T02:37:48.980Z,996.71
2017-04-25T02:39:01.504Z,996.69
2017-04-25T02:40:13.746Z,996.69
2017-04-25T02:41:26.247Z,996.67
2017-04-25T02:42:38.488Z,996.63
2017-04-25T02:43:51.009Z,996.6
2017-04-25T02:45:03.550Z,996.65
2017-04-25T02:46:15.472Z,996.57
2017-04-25T02:47:28.000Z,996.51
2017-04-25T02:48:40.235Z,996.42
2017-04-25T02:49:52.766Z,996.49
2017-04-25T02:51:05.591Z,996.5
2017-04-25T02:52:18.105Z,996.51
2017-04-25T02:53:30.629Z,996.48
2017-04-25T02:54:43.174Z,996.42
2017-04-25T02:55:55.672Z,996.42
2017-04-25T02:57:07.914Z,996.45
2017-04-25T02:58:20.435Z,996.44
2017-04-25T02:59:32.973Z,996.4
2017-04-25T03:00:45.206Z,996.39
2017-04-25T03:01:57.998Z,996.37
2017-04-25T03:03:10.219Z,996.35
2017-04-25T03:04:22.764Z,996.31
2017-04-25T03:05:35.290Z,996.33
2017-04-25T03:06:47.806Z,996.31
2017-04-25T03:08:00.031Z,996.32
2017-04-25T03:09:12.577Z,996.24
2017-04-25T03:10:25.120Z,996.28
2017-04-25T03:11:37.339Z,996.31
2017-04-25T03:12:49.581Z,996.28
2017-04-25T03:14:02.136Z,996.29
2017-04-25T03:15:14.080Z,996.31
2017-04-25T03:16:26.302Z,996.27
2017-04-25T03:17:38.862Z,996.22
2017-04-25T03:18:51.415Z,996.3
2017-04-25T03:20:03.956Z,996.3
2017-04-25T03:21:16.185Z,996.27
2017-04-25T03:22:28.406Z,996.25
2017-04-25T03:23:41.271Z,996.25
2017-04-25T03:24:53.795Z,996.25
2017-04-25T03:26:06.008Z,996.23
2017-04-25T03:27:17.936Z,996.24
2017-04-25T03:28:30.463Z,996.22
2017-04-25T03:29:42.980Z,996.2
2017-04-25T03:30:55.224Z,996.19
2017-04-25T03:32:07.419Z,996.21
2017-04-25T03:33:19.623Z,996.23
2017-04-25T03:34:32.167Z,996.26
2017-04-25T03:35:44.715Z,996.23
2017-04-25T03:36:56.950Z,996.28
2017-04-25T03:38:09.154Z,996.32
2017-04-25T03:39:21.392Z,996.33
2017-04-25T03:40:33.895Z,996.27
2017-04-25T03:41:46.412Z,996.26
2017-04-25T03:42:58.954Z,996.26
2017-04-25T03:44:11.479Z,996.23
2017-04-25T03:45:24.001Z,996.19
2017-04-25T03:46:36.547Z,996.16
2017-04-25T03:47:49.093Z,996.19
2017-04-25T03:49:01.642Z,996.16
2017-04-25T03:50:14.163Z,996.18
2017-04-25T03:51:26.709Z,996.15
2017-04-25T03:52:39.222Z,996.11
2017-04-25T03:53:51.747Z,996.08
2017-04-25T03:55:04.249Z,996.14
2017-04-25T03:56:16.793Z,996.12
2017-04-25T03:57:29.338Z,996.15
2017-04-25T03:58:41.881Z,996.12
2017-04-25T03:59:54.404Z,996.11
2017-04-25T04:01:06.650Z,996.04
2017-04-25T04:02:19.429Z,996.11
2017-04-25T04:03:31.941Z,996.06
2017-04-25T04:04:44.481Z,996.05
2017-04-25T04:05:57.030Z,996.02
2017-04-25T04:07:09.573Z,995.97
2017-04-25T04:08:22.098Z,995.98
2017-04-25T04:09:34.647Z,995.95
2017-04-25T04:10:47.186Z,995.88
2017-04-25T04:11:59.389Z,995.92
2017-04-25T04:13:11.930Z,995.93
2017-04-25T04:14:24.153Z,995.89
2017-04-25T04:15:36.695Z,995.89
2017-04-25T04:16:49.237Z,995.89
2017-04-25T04:18:01.740Z,995.88
2017-04-25T04:19:14.266Z,995.82
2017-04-25T04:20:26.799Z,995.85
2017-04-25T04:21:39.006Z,995.83
2017-04-25T04:22:51.552Z,995.8
2017-04-25T04:24:04.345Z,995.79
2017-04-25T04:25:16.893Z,995.76
2017-04-25T04:26:29.436Z,995.79
2017-04-25T04:27:41.957Z,995.77
2017-04-25T04:28:54.206Z,995.8
2017-04-25T04:30:06.749Z,995.82
2017-04-25T04:31:19.272Z,995.76
2017-04-25T04:32:31.816Z,995.77
2017-04-25T04:33:44.366Z,995.78
2017-04-25T04:34:56.908Z,995.75
2017-04-25T04:36:09.428Z,995.73
2017-04-25T04:37:21.949Z,995.74
2017-04-25T04:38:34.502Z,995.71
2017-04-25T04:39:47.286Z,995.72
2017-04-25T04:40:59.529Z,995.68
2017-04-25T04:42:12.087Z,995.74
2017-04-25T04:43:24.606Z,995.7
2017-04-25T04:44:37.128Z,995.7
2017-04-25T04:45:49.373Z,995.68
2017-04-25T04:47:01.322Z,995.69
2017-04-25T04:48:13.842Z,995.7
2017-04-25T04:49:26.404Z,995.73
2017-04-25T04:50:38.972Z,995.68
2017-04-25T04:51:51.181Z,995.7
2017-04-25T04:53:03.721Z,995.75
2017-04-25T04:54:16.243Z,995.68
2017-04-25T04:55:28.466Z,995.67
2017-04-25T04:56:41.013Z,995.68
2017-04-25T04:57:53.558Z,995.66
2017-04-25T04:59:05.776Z,995.67
2017-04-25T05:00:17.739Z,995.68
2017-04-25T05:01:30.268Z,995.72
2017-04-25T05:02:42.769Z,995.73
2017-04-25T05:03:55.309Z,995.72
2017-04-25T05:05:07.855Z,995.76
2017-04-25T05:06:20.379Z,995.79
2017-04-25T05:07:32.922Z,995.76
2017-04-25T05:08:45.453Z,995.73
2017-04-25T05:09:58.011Z,995.69
2017-04-25T05:11:10.263Z,995.66
2017-04-25T05:12:22.784Z,995.63
2017-04-25T05:13:35.302Z,995.63
2017-04-25T05:14:47.540Z,995.62
2017-04-25T05:16:00.104Z,995.68
2017-04-25T05:17:12.344Z,995.64
2017-04-25T05:18:24.578Z,995.68
2017-04-25T05:19:37.088Z,995.68
2017-04-25T05:20:49.632Z,995.69
2017-04-25T05:22:02.177Z,995.69
2017-04-25T05:23:14.123Z,995.68
2017-04-25T05:24:26.614Z,995.71
2017-04-25T05:25:39.140Z,995.7
2017-04-25T05:26:51.681Z,995.71
2017-04-25T05:28:04.206Z,995.69
2017-04-25T05:29:16.701Z,995.76
2017-04-25T05:30:28.941Z,995.74
2017-04-25T05:31:41.461Z,995.76
2017-04-25T05:32:54.014Z,995.78
2017-04-25T05:34:06.561Z,995.75
2017-04-25T05:35:19.108Z,995.79
2017-04-25T05:36:31.674Z,995.81
2017-04-25T05:37:44.173Z,995.8
2017-04-25T05:38:56.740Z,995.86
2017-04-25T05:40:09.215Z,995.79
2017-04-25T05:41:21.762Z,995.83
2017-04-25T05:42:34.329Z,995.81
2017-04-25T05:43:46.884Z,995.88
2017-04-25T05:44:59.146Z,995.96
2017-04-25T05:46:11.066Z,995.96
2017-04-25T05:47:23.605Z,995.88
2017-04-25T05:48:36.142Z,995.86
2017-04-25T05:49:48.675Z,995.85
2017-04-25T05:51:01.200Z,995.81
2017-04-25T05:52:13.438Z,995.77
2017-04-25T05:53:25.949Z,995.82
2017-04-25T05:54:38.466Z,995.84
2017-04-25T05:55:50.987Z,995.87
2017-04-25T05:57:03.534Z,995.83
2017-04-25T05:58:15.803Z,995.88
2017-04-25T05:59:28.350Z,995.89
2017-04-25T06:00:40.921Z,995.9
2017-04-25T06:01:53.186Z,995.83
2017-04-25T06:03:05.109Z,995.86
2017-04-25T06:04:17.648Z,995.83
2017-04-25T06:05:30.176Z,995.84
2017-04-25T06:06:43.025Z,995.81
2017-04-25T06:07:55.542Z,995.83
2017-04-25T06:09:07.743Z,995.85
2017-04-25T06:10:20.289Z,995.83
2017-04-25T06:11:32.822Z,995.83
2017-04-25T06:12:45.351Z,995.87
2017-04-25T06:13:57.904Z,995.91
2017-04-25T06:15:10.421Z,995.87
2017-04-25T06:16:22.342Z,995.86
2017-04-25T06:17:35.166Z,995.86
2017-04-25T06:18:47.710Z,995.9
2017-04-25T06:20:00.253Z,995.87
2017-04-25T06:21:12.798Z,995.88
2017-04-25T06:22:25.320Z,995.9
2017-04-25T06:23:37.840Z,995.92
2017-04-25T06:24:50.367Z,995.99
2017-04-25T06:26:02.906Z,996.01
2017-04-25T06:27:15.128Z,995.99
2017-04-25T06:28:27.345Z,996
2017-04-25T06:29:39.897Z,996
2017-04-25T06:30:52.448Z,996
2017-04-25T06:32:04.986Z,995.99
2017-04-25T06:33:17.224Z,995.99
2017-04-25T06:34:29.730Z,996.01
2017-04-25T06:35:42.278Z,996.02
2017-04-25T06:36:54.819Z,996.01
2017-04-25T06:38:07.040Z,996.02
2017-04-25T06:39:19.890Z,996.08
2017-04-25T06:40:32.178Z,996.12
2017-04-25T06:41:44.111Z,996.17
2017-04-25T06:42:56.624Z,996.19
2017-04-25T06:44:09.120Z,996.28
2017-04-25T06:45:21.041Z,996.27
2017-04-25T06:46:33.565Z,996.3
2017-04-25T06:47:46.088Z,996.31
2017-04-25T06:48:58.607Z,996.29
2017-04-25T06:50:11.124Z,996.18
2017-04-25T06:51:23.321Z,996.13
2017-04-25T06:52:35.848Z,996.21
2017-04-25T06:53:48.394Z,996.11
2017-04-25T06:55:00.625Z,996.16
2017-04-25T06:56:13.173Z,996.17
2017-04-25T06:57:25.421Z,996.21
2017-04-25T06:58:37.670Z,996.36
2017-04-25T06:59:50.199Z,996.47
2017-04-25T07:01:02.992Z,996.38
2017-04-25T07:02:15.208Z,996.4
2017-04-25T07:03:27.409Z,996.41
2017-04-25T07:04:39.330Z,996.47
2017-04-25T07:05:51.846Z,996.48
2017-04-25T07:07:04.398Z,996.59
2017-04-25T07:08:16.934Z,996.58
2017-04-25T07:09:29.476Z,996.67
2017-04-25T07:10:41.705Z,996.68
2017-04-25T07:11:53.929Z,996.66
2017-04-25T07:13:06.451Z,996.65
2017-04-25T07:14:18.693Z,996.65
2017-04-25T07:15:30.632Z,996.65
2017-04-25T07:16:42.861Z,996.6
2017-04-25T07:17:55.385Z,996.75
2017-04-25T07:19:07.605Z,996.76
2017-04-25T07:20:19.847Z,996.75
2017-04-25T07:21:32.069Z,996.72
2017-04-25T07:22:44.293Z,996.8
2017-04-25T07:23:56.815Z,996.88
2017-04-25T07:25:09.335Z,996.89
2017-04-25T07:26:21.848Z,996.9
2017-04-25T07:27:34.348Z,996.99
2017-04-25T07:28:46.848Z,996.97
2017-04-25T07:29:59.082Z,996.97
2017-04-25T07:31:11.593Z,996.94
2017-04-25T07:32:23.837Z,996.92
2017-04-25T07:33:36.408Z,996.91
2017-04-25T07:34:48.653Z,996.97
2017-04-25T07:36:01.212Z,996.98
2017-04-25T07:37:13.733Z,997.04
2017-04-25T07:38:26.263Z,997
2017-04-25T07:39:38.784Z,997.05
2017-04-25T07:40:51.331Z,997.03
2017-04-25T07:42:03.883Z,997.1
2017-04-25T07:43:16.423Z,997.19
2017-04-25T07:44:28.643Z,997.12
2017-04-25T07:45:41.193Z,997.07
2017-04-25T07:46:53.112Z,997.16
2017-04-25T07:48:05.629Z,997.06
2017-04-25T07:49:17.857Z,997.09
2017-04-25T07:50:30.398Z,997.11
2017-04-25T07:51:42.941Z,997.2
2017-04-25T07:52:55.483Z,997.19
2017-04-25T07:54:07.108Z,997.27
2017-04-25T07:55:19.631Z,997.29
2017-04-25T07:56:32.178Z,997.33
2017-04-25T07:57:44.417Z,997.33
2017-04-25T07:58:56.943Z,997.44
2017-04-25T08:00:09.481Z,997.44
2017-04-25T08:01:22.037Z,997.53
2017-04-25T08:02:34.285Z,997.52
2017-04-25T08:03:46.831Z,997.5
2017-04-25T08:04:59.346Z,997.59
2017-04-25T08:06:11.576Z,997.56
2017-04-25T08:07:23.816Z,997.59
2017-04-25T08:08:36.047Z,997.62
2017-04-25T08:09:48.580Z,997.55
2017-04-25T08:11:00.822Z,997.63
2017-04-25T08:12:12.739Z,997.66
2017-04-25T08:13:25.270Z,997.67
2017-04-25T08:14:37.818Z,997.66
2017-04-25T08:15:50.364Z,997.65
2017-04-25T08:17:02.906Z,997.68
2017-04-25T08:18:15.452Z,997.68
2017-04-25T08:19:27.702Z,997.72
2017-04-25T08:20:40.264Z,997.73
2017-04-25T08:21:52.818Z,997.71
2017-04-25T08:23:05.364Z,997.72
2017-04-25T08:24:17.284Z,997.73
2017-04-25T08:25:29.805Z,997.76
2017-04-25T08:26:42.299Z,997.72
2017-04-25T08:27:54.840Z,997.76
2017-04-25T08:29:07.068Z,997.78
2017-04-25T08:30:19.618Z,997.82
2017-04-25T08:31:32.158Z,997.79
2017-04-25T08:32:44.710Z,997.81
2017-04-25T08:33:56.923Z,997.78
2017-04-25T08:35:09.469Z,997.8
2017-04-25T08:36:21.998Z,997.82
2017-04-25T08:37:34.529Z,997.87
2017-04-25T08:38:47.361Z,997.85
2017-04-25T08:39:59.883Z,997.82
2017-04-25T08:41:12.123Z,997.9
2017-04-25T08:42:24.337Z,997.88
2017-04-25T08:43:36.866Z,997.9
2017-04-25T08:44:49.440Z,997.98
2017-04-25T08:46:01.357Z,998.02
2017-04-25T08:47:13.882Z,998.05
2017-04-25T08:48:26.424Z,998.04
2017-04-25T08:49:38.969Z,997.99
2017-04-25T08:50:50.920Z,998.01
2017-04-25T08:52:03.447Z,998.05
2017-04-25T08:53:15.962Z,998.09
2017-04-25T08:54:27.887Z,998.03
2017-04-25T08:55:40.126Z,998.15
2017-04-25T08:56:52.674Z,998.31
2017-04-25T08:58:05.222Z,998.22
2017-04-25T08:59:17.462Z,998.35
2017-04-25T09:00:29.988Z,998.27
2017-04-25T09:01:42.549Z,998.16
2017-04-25T09:02:55.083Z,998.21
2017-04-25T09:04:07.648Z,998.19
2017-04-25T09:05:19.895Z,998.38
2017-04-25T09:06:32.387Z,998.3
2017-04-25T09:07:44.912Z,998.42
2017-04-25T09:08:57.458Z,998.24
2017-04-25T09:10:10.018Z,998.14
2017-04-25T09:11:22.550Z,998.18
2017-04-25T09:12:35.085Z,998.27
2017-04-25T09:13:47.588Z,998.18
2017-04-25T09:14:59.837Z,998.25
2017-04-25T09:16:12.380Z,998.2
2017-04-25T09:17:24.900Z,998.27
2017-04-25T09:18:37.442Z,998.35
2017-04-25T09:19:49.370Z,998.37
2017-04-25T09:21:01.917Z,998.5
2017-04-25T09:22:14.437Z,998.48
2017-04-25T09:23:26.983Z,998.5
2017-04-25T09:24:39.507Z,998.39
2017-04-25T09:25:51.752Z,998.51
2017-04-25T09:27:04.296Z,998.55
2017-04-25T09:28:16.844Z,998.58
2017-04-25T09:29:29.390Z,998.75
2017-04-25T09:30:41.965Z,998.74
2017-04-25T09:31:54.511Z,998.72
2017-04-25T09:33:07.054Z,998.78
2017-04-25T09:34:19.268Z,998.73
2017-04-25T09:35:31.810Z,998.58
2017-04-25T09:36:44.085Z,998.66
2017-04-25T09:37:56.605Z,998.69
2017-04-25T09:39:08.807Z,998.66
2017-04-25T09:40:21.043Z,998.63
2017-04-25T09:41:33.273Z,998.65
2017-04-25T09:42:45.519Z,998.75
2017-04-25T09:43:58.065Z,998.72
2017-04-25T09:45:10.013Z,998.83
2017-04-25T09:46:22.252Z,998.97
2017-04-25T09:47:34.779Z,998.88
2017-04-25T09:48:47.297Z,999.15
2017-04-25T09:49:59.518Z,999.1
2017-04-25T09:51:12.065Z,999.06
2017-04-25T09:52:24.287Z,998.94
2017-04-25T09:53:36.833Z,998.89
2017-04-25T09:54:49.074Z,998.82
2017-04-25T09:56:01.637Z,998.88
2017-04-25T09:57:13.870Z,998.84
2017-04-25T09:58:26.113Z,999.03
2017-04-25T09:59:38.637Z,999.11
2017-04-25T10:00:51.153Z,999.11
2017-04-25T10:02:03.674Z,998.94
2017-04-25T10:03:15.892Z,999.15
2017-04-25T10:04:28.424Z,999.17
2017-04-25T10:05:40.666Z,999.25
2017-04-25T10:06:53.211Z,999.17
2017-04-25T10:08:05.482Z,999.19
2017-04-25T10:09:17.705Z,999.22
2017-04-25T10:10:30.272Z,999.28
2017-04-25T10:11:42.792Z,999.39
2017-04-25T10:12:55.355Z,999.25
2017-04-25T10:14:07.889Z,999.21
2017-04-25T10:15:20.429Z,999.15
2017-04-25T10:16:32.970Z,999.25
2017-04-25T10:17:45.500Z,999.18
2017-04-25T10:18:58.042Z,999.07
2017-04-25T10:20:10.280Z,999.11
2017-04-25T10:21:22.808Z,999.16
2017-04-25T10:22:35.324Z,999.2
2017-04-25T10:23:47.847Z,999.24
2017-04-25T10:25:00.097Z,999.19
2017-04-25T10:26:12.637Z,999.26
2017-04-25T10:27:24.263Z,999.31
2017-04-25T10:28:36.809Z,999.27
2017-04-25T10:29:49.357Z,999.13
2017-04-25T10:31:01.854Z,999.16
2017-04-25T10:32:14.097Z,999.25
2017-04-25T10:33:26.649Z,999.27
2017-04-25T10:34:38.924Z,999.32
2017-04-25T10:35:51.159Z,999.3
2017-04-25T10:37:03.380Z,999.18
2017-04-25T10:38:15.602Z,999.2
2017-04-25T10:39:28.123Z,999.26
2017-04-25T10:40:40.041Z,999.32
2017-04-25T10:41:52.240Z,999.36
2017-04-25T10:43:04.770Z,999.28
2017-04-25T10:44:17.010Z,999.39
2017-04-25T10:45:29.552Z,999.3
2017-04-25T10:46:42.108Z,999.42
2017-04-25T10:47:54.623Z,999.43
2017-04-25T10:49:07.143Z,999.46
2017-04-25T10:50:18.766Z,999.44
2017-04-25T10:51:30.986Z,999.26
2017-04-25T10:52:43.232Z,999.28
2017-04-25T10:53:55.491Z,999.32
2017-04-25T10:55:07.997Z,999.4
2017-04-25T10:56:19.943Z,999.24
2017-04-25T10:57:32.508Z,999.18
2017-04-25T10:58:45.035Z,999.18
2017-04-25T10:59:57.256Z,999.2
2017-04-25T11:01:09.805Z,999.18
2017-04-25T11:02:22.063Z,999.08
2017-04-25T11:03:34.271Z,999.33
2017-04-25T11:04:46.490Z,999.17
2017-04-25T11:05:59.064Z,999.34
2017-04-25T11:07:11.597Z,999.22
2017-04-25T11:08:23.806Z,999.28
2017-04-25T11:09:35.422Z,999.27
2017-04-25T11:10:47.360Z,999.28
2017-04-25T11:11:59.862Z,999.24
2017-04-25T11:13:12.125Z,999.3
2017-04-25T11:14:24.075Z,999.29
2017-04-25T11:15:36.309Z,999.33
2017-04-25T11:16:48.846Z,999.33
2017-04-25T11:18:01.070Z,999.2
2017-04-25T11:19:13.007Z,999.22
2017-04-25T11:20:25.554Z,999.23
2017-04-25T11:21:38.065Z,999.22
2017-04-25T11:22:50.601Z,999.24
2017-04-25T11:24:02.807Z,999.17
2017-04-25T11:25:15.068Z,999.13
2017-04-25T11:26:27.593Z,999.19
2017-04-25T11:27:40.135Z,999.22
2017-04-25T11:28:52.076Z,999.22
2017-04-25T11:30:04.622Z,999.34
2017-04-25T11:31:17.150Z,999.33
2017-04-25T11:32:29.672Z,999.36
2017-04-25T11:33:42.219Z,999.27
2017-04-25T11:34:54.785Z,999.22
2017-04-25T11:36:07.310Z,999.19
2017-04-25T11:37:19.844Z,999.14
2017-04-25T11:38:32.085Z,999.03
2017-04-25T11:39:44.622Z,999.12
2017-04-25T11:40:56.868Z,999.1
2017-04-25T11:42:09.114Z,999.13
2017-04-25T11:43:21.362Z,999.16
2017-04-25T11:44:33.282Z,999.11
2017-04-25T11:45:45.802Z,999.13
2017-04-25T11:46:58.327Z,999.32
2017-04-25T11:48:10.573Z,999.35
2017-04-25T11:49:22.493Z,999.43
2017-04-25T11:50:34.736Z,999.29
2017-04-25T11:51:47.277Z,999.3
2017-04-25T11:52:59.519Z,999.46
2017-04-25T11:54:11.448Z,999.52
2017-04-25T11:55:23.990Z,999.49
2017-04-25T11:56:36.530Z,999.59
2017-04-25T11:57:49.032Z,999.58
2017-04-25T11:59:01.259Z,999.5
2017-04-25T12:00:13.781Z,999.39
2017-04-25T12:01:26.313Z,999.62
2017-04-25T12:02:38.834Z,999.52
2017-04-25T12:03:51.055Z,999.53
2017-04-25T12:05:03.589Z,999.84
2017-04-25T12:06:16.134Z,999.87
2017-04-25T12:07:28.674Z,999.85
2017-04-25T12:08:41.231Z,999.91
2017-04-25T12:09:53.774Z,999.87
2017-04-25T12:11:06.040Z,999.8
2017-04-25T12:12:18.584Z,999.85
2017-04-25T12:13:31.132Z,999.94
2017-04-25T12:14:43.395Z,999.84
2017-04-25T12:15:55.939Z,999.92
2017-04-25T12:17:08.443Z,999.95
2017-04-25T12:18:20.664Z,999.78
2017-04-25T12:19:32.912Z,999.64
2017-04-25T12:20:45.134Z,999.61
2017-04-25T12:21:57.352Z,999.62
2017-04-25T12:23:09.571Z,999.85
2017-04-25T12:24:22.113Z,999.93
2017-04-25T12:25:34.645Z,999.89
2017-04-25T12:26:47.185Z,999.7
2017-04-25T12:27:59.406Z,999.71
2017-04-25T12:29:11.926Z,999.54
2017-04-25T12:30:23.869Z,999.44
2017-04-25T12:31:36.419Z,999.51
2017-04-25T12:32:48.667Z,999.65
2017-04-25T12:34:01.214Z,999.59
2017-04-25T12:35:13.780Z,999.72
2017-04-25T12:36:26.330Z,999.65
2017-04-25T12:37:38.853Z,999.57
2017-04-25T12:38:51.374Z,999.47
2017-04-25T12:40:03.910Z,999.47
2017-04-25T12:41:16.459Z,999.39
2017-04-25T12:42:28.402Z,999.39
2017-04-25T12:43:40.954Z,999.37
2017-04-25T12:44:53.478Z,999.33
2017-04-25T12:46:06.019Z,999.21
2017-04-25T12:47:18.294Z,999.28
2017-04-25T12:48:30.536Z,999.3
2017-04-25T12:49:43.081Z,999.28
2017-04-25T12:50:55.595Z,999.23
2017-04-25T12:52:07.829Z,999.25
2017-04-25T12:53:20.390Z,999.21
2017-04-25T12:54:32.657Z,999.2
2017-04-25T12:55:45.190Z,999.18
2017-04-25T12:56:57.713Z,999.23
2017-04-25T12:58:10.258Z,999.25
2017-04-25T12:59:22.517Z,999.26
2017-04-25T13:00:35.074Z,999.19
2017-04-25T13:01:47.309Z,999.1
2017-04-25T13:02:59.849Z,999.11
2017-04-25T13:04:12.415Z,999.1
2017-04-25T13:05:24.958Z,999.25
2017-04-25T13:06:37.220Z,999.45
2017-04-25T13:07:49.164Z,999.41
2017-04-25T13:09:01.412Z,999.19
2017-04-25T13:10:13.994Z,999.33
2017-04-25T13:11:26.532Z,999.25
2017-04-25T13:12:37.859Z,999.11
2017-04-25T13:13:49.830Z,999.26
2017-04-25T13:15:02.375Z,999.24
2017-04-25T13:16:14.921Z,999.24
2017-04-25T13:17:27.459Z,999.3
2017-04-25T13:18:40.011Z,999.29
2017-04-25T13:19:52.525Z,999.28
2017-04-25T13:21:05.432Z,999.33
2017-04-25T13:22:17.675Z,999.18
2017-04-25T13:23:30.219Z,999.32
2017-04-25T13:24:42.455Z,999.14
2017-04-25T13:25:54.987Z,999.2
2017-04-25T13:27:07.504Z,999.22
2017-04-25T13:28:19.758Z,999.25
2017-04-25T13:29:31.725Z,999.18
2017-04-25T13:30:44.296Z,999.06
2017-04-25T13:31:56.844Z,999.01
2017-04-25T13:33:07.864Z,999.1
2017-04-25T13:34:20.423Z,999.31
2017-04-25T13:35:32.655Z,999.16
2017-04-25T13:36:45.198Z,999.25
2017-04-25T13:37:57.748Z,999.17
2017-04-25T13:39:09.993Z,999.28
2017-04-25T13:40:22.556Z,999.21
2017-04-25T13:41:35.098Z,999.12
2017-04-25T13:42:46.404Z,999.1
2017-04-25T13:43:58.941Z,999.15
2017-04-25T13:45:11.187Z,999.23
2017-04-25T13:46:23.740Z,999.34
2017-04-25T13:47:36.264Z,999.21
2017-04-25T13:48:48.805Z,999.19
2017-04-25T13:50:01.348Z,999.12
2017-04-25T13:51:13.577Z,999.28
2017-04-25T13:52:24.921Z,999.17
2017-04-25T13:53:36.600Z,999.2
2017-04-25T13:54:49.165Z,999.2
2017-04-25T13:56:01.685Z,999.23
2017-04-25T13:57:14.231Z,999.21
2017-04-25T13:58:26.481Z,999.21
2017-04-25T13:59:38.724Z,999.41
2017-04-25T14:00:51.243Z,999.23
2017-04-25T14:02:04.031Z,999.22
2017-04-25T14:03:14.760Z,999.32
2017-04-25T14:04:26.124Z,999.35
2017-04-25T14:05:38.057Z,999.46
2017-04-25T14:06:50.571Z,999.46
2017-04-25T14:08:03.095Z,999.44
2017-04-25T14:09:15.305Z,999.54
2017-04-25T14:10:27.834Z,999.53
2017-04-25T14:11:40.356Z,999.46
2017-04-25T14:12:51.991Z,999.55
2017-04-25T14:14:02.705Z,999.59
2017-04-25T14:15:13.734Z,999.53
2017-04-25T14:16:26.263Z,999.6
2017-04-25T14:17:38.809Z,999.54
2017-04-25T14:18:51.360Z,999.56
2017-04-25T14:20:03.594Z,999.48
2017-04-25T14:21:16.104Z,999.51
2017-04-25T14:22:27.145Z,999.56
2017-04-25T14:23:38.241Z,999.45
2017-04-25T14:24:49.264Z,999.41
2017-04-25T14:26:00.008Z,999.46
2017-04-25T14:27:10.727Z,999.4
2017-04-25T14:28:23.278Z,999.41
2017-04-25T14:29:35.799Z,999.54
2017-04-25T14:30:48.050Z,999.65
2017-04-25T14:32:00.602Z,999.67
2017-04-25T14:33:11.335Z,999.7
2017-04-25T14:34:22.681Z,999.77
2017-04-25T14:35:34.672Z,999.74
2017-04-25T14:36:46.269Z,999.76
2017-04-25T14:37:57.567Z,999.82
2017-04-25T14:39:09.515Z,999.88
2017-04-25T14:40:21.160Z,999.77
2017-04-25T14:41:33.703Z,999.83
2017-04-25T14:42:45.924Z,999.73
2017-04-25T14:43:58.470Z,999.76
2017-04-25T14:45:10.412Z,999.79
2017-04-25T14:46:22.612Z,999.74
2017-04-25T14:47:34.839Z,999.75
2017-04-25T14:48:47.372Z,999.66
2017-04-25T14:49:59.879Z,999.57
2017-04-25T14:51:12.087Z,999.65
2017-04-25T14:52:24.611Z,999.73
2017-04-25T14:53:37.155Z,999.66
2017-04-25T14:54:50.890Z,999.65
2017-04-25T14:56:03.433Z,999.68
2017-04-25T14:57:15.675Z,999.72
2017-04-25T14:58:28.267Z,999.78
2017-04-25T14:59:40.797Z,999.91
2017-04-25T15:00:53.013Z,999.9
2017-04-25T15:02:05.554Z,999.82
2017-04-25T15:03:17.522Z,999.87
2017-04-25T15:04:29.750Z,999.8
2017-04-25T15:05:42.259Z,999.81
2017-04-25T15:06:54.793Z,999.86